createdAt,value
2023-01-17T00:04:10.618Z,3.08
2023-01-17T00:09:35.189Z,3.08
2023-01-17T00:14:41.651Z,3.10
2023-01-17T00:20:12.929Z,3.03
2023-01-17T00:25:39.316Z,3.05
2023-01-17T00:30:45.922Z,2.98
2023-01-17T00:35:53.623Z,2.95
2023-01-17T00:41:04.377Z,2.95
2023-01-17T00:46:28.405Z,2.93
2023-01-17T00:51:54.344Z,2.91
2023-01-17T00:57:18.690Z,2.93
2023-01-17T01:02:43.822Z,2.94
2023-01-17T01:08:09.332Z,2.95
2023-01-17T01:13:33.152Z,2.94
2023-01-17T01:18:56.658Z,2.93
2023-01-17T01:24:21.451Z,2.96
2023-01-17T01:29:45.215Z,2.99
2023-01-17T01:34:52.483Z,3.01
2023-01-17T01:40:00.881Z,3.03
2023-01-17T01:45:20.812Z,2.98
2023-01-17T01:50:28.755Z,2.98
2023-01-17T01:55:41.515Z,2.99
2023-01-17T02:00:47.969Z,2.94
2023-01-17T02:05:55.006Z,3.03
2023-01-17T02:11:03.770Z,3.07
2023-01-17T02:16:24.358Z,3.10
2023-01-17T02:21:34.082Z,3.11
2023-01-17T02:27:06.039Z,3.15
2023-01-17T02:32:22.675Z,3.11
2023-01-17T02:37:38.570Z,3.09
2023-01-17T02:42:51.766Z,3.16
2023-01-17T02:47:59.738Z,3.16
2023-01-17T02:53:27.804Z,3.18
2023-01-17T02:58:54.170Z,3.20
2023-01-17T03:04:08.149Z,3.22
2023-01-17T03:09:17.085Z,3.24
2023-01-17T03:14:23.645Z,3.23
2023-01-17T03:19:31.851Z,3.24
2023-01-17T03:24:38.302Z,3.25
2023-01-17T03:29:44.538Z,3.24
2023-01-17T03:34:52.280Z,3.27
2023-01-17T03:39:58.793Z,3.26
2023-01-17T03:45:07.952Z,3.27
2023-01-17T03:50:18.992Z,3.28
2023-01-17T03:55:27.317Z,3.26
2023-01-17T04:00:37.454Z,3.26
2023-01-17T04:05:45.325Z,3.28
2023-01-17T04:10:51.569Z,3.28
2023-01-17T04:15:58.724Z,3.25
2023-01-17T04:21:08.026Z,3.23
2023-01-17T04:26:15.215Z,3.20
2023-01-17T04:31:21.696Z,3.21
2023-01-17T04:36:29.537Z,3.21
2023-01-17T04:41:36.321Z,3.22
2023-01-17T04:46:42.875Z,3.19
2023-01-17T04:51:50.641Z,3.17
2023-01-17T04:56:56.986Z,3.16
2023-01-17T05:02:03.487Z,3.13
2023-01-17T05:07:11.579Z,3.10
2023-01-17T05:12:21.447Z,3.08
2023-01-17T05:17:28.390Z,3.01
2023-01-17T05:22:36.176Z,2.93
2023-01-17T05:27:42.423Z,2.86
2023-01-17T05:32:51.711Z,2.82
2023-01-17T05:37:59.828Z,2.76
2023-01-17T05:43:06.376Z,2.67
2023-01-17T05:48:12.858Z,2.59
2023-01-17T05:53:21.545Z,2.58
2023-01-17T05:58:28.057Z,2.52
2023-01-17T06:03:34.718Z,2.50
2023-01-17T06:08:42.701Z,2.41
2023-01-17T06:13:51.007Z,2.35
2023-01-17T06:18:57.572Z,2.31
2023-01-17T06:24:06.513Z,2.24
2023-01-17T06:29:13.549Z,2.22
2023-01-17T06:34:20.193Z,2.16
2023-01-17T06:39:28.512Z,2.10
2023-01-17T06:44:35.409Z,2.11
2023-01-17T06:49:44.557Z,2.09
2023-01-17T06:54:52.165Z,2.05
2023-01-17T06:59:58.416Z,1.99
2023-01-17T07:05:04.882Z,1.93
2023-01-17T07:10:15.224Z,1.99
2023-01-17T07:15:21.566Z,1.97
2023-01-17T07:20:28.113Z,1.93
2023-01-17T07:25:37.154Z,1.95
2023-01-17T07:30:43.552Z,1.92
2023-01-17T07:35:49.986Z,1.90
2023-01-17T07:41:01.229Z,1.94
2023-01-17T07:46:08.886Z,2.00
2023-01-17T07:51:15.188Z,2.01
2023-01-17T07:56:23.524Z,2.05
2023-01-17T08:01:30.220Z,2.09
2023-01-17T08:06:36.900Z,2.17
2023-01-17T08:11:44.766Z,2.22
2023-01-17T08:16:51.230Z,2.28
2023-01-17T08:21:57.852Z,2.31
2023-01-17T08:27:05.885Z,2.33
2023-01-17T08:32:12.226Z,2.37
2023-01-17T08:37:18.612Z,2.41
2023-01-17T08:42:26.750Z,2.47
2023-01-17T08:47:33.683Z,2.53
2023-01-17T08:52:40.244Z,2.59
2023-01-17T08:57:48.364Z,2.62
2023-01-17T09:02:54.957Z,2.70
2023-01-17T09:08:01.292Z,2.74
2023-01-17T09:13:09.762Z,2.80
2023-01-17T09:18:16.078Z,2.85
2023-01-17T09:23:22.752Z,2.92
2023-01-17T09:28:30.684Z,2.94
2023-01-17T09:33:37.262Z,2.98
2023-01-17T09:38:43.851Z,3.01
2023-01-17T09:43:56.135Z,3.04
2023-01-17T09:49:09.460Z,3.08
2023-01-17T09:54:24.334Z,3.11
2023-01-17T09:59:45.628Z,3.17
2023-01-17T10:05:20.501Z,3.18
2023-01-17T10:10:39.406Z,3.22
2023-01-17T10:16:04.781Z,3.26
2023-01-17T10:21:21.370Z,3.28
2023-01-17T10:26:29.009Z,3.35
2023-01-17T10:31:45.184Z,3.38
2023-01-17T10:37:00.825Z,3.41
2023-01-17T10:42:18.770Z,3.47
2023-01-17T10:47:30.879Z,3.50
2023-01-17T10:52:47.475Z,3.53
2023-01-17T10:57:54.869Z,3.56
2023-01-17T11:03:03.979Z,3.57
2023-01-17T11:08:11.250Z,3.57
2023-01-17T11:13:30.184Z,3.63
2023-01-17T11:18:40.798Z,3.68
2023-01-17T11:23:49.506Z,3.70
2023-01-17T11:29:14.524Z,3.75
2023-01-17T11:34:27.517Z,3.80
2023-01-17T11:39:33.850Z,3.83
2023-01-17T11:44:40.678Z,3.86
2023-01-17T11:49:50.945Z,3.91
2023-01-17T11:54:58.063Z,3.95
2023-01-17T12:00:17.332Z,3.99
2023-01-17T12:05:54.159Z,4.02
2023-01-17T12:11:11.648Z,4.04
2023-01-17T12:16:31.814Z,4.03
2023-01-17T12:21:53.187Z,4.05
2023-01-17T12:27:10.102Z,4.08
2023-01-17T12:32:43.532Z,4.14
2023-01-17T12:38:04.924Z,4.19
2023-01-17T12:43:21.941Z,4.23
2023-01-17T12:48:35.618Z,4.27
2023-01-17T12:53:52.510Z,4.24
2023-01-17T12:59:13.842Z,4.20
2023-01-17T13:04:29.039Z,4.13
2023-01-17T13:09:46.324Z,4.11
2023-01-17T13:14:52.724Z,4.03
2023-01-17T13:20:05.027Z,4.04
2023-01-17T13:25:32.335Z,4.02
2023-01-17T13:31:03.232Z,3.99
2023-01-17T13:36:35.684Z,4.00
2023-01-17T13:42:05.039Z,3.99
2023-01-17T13:47:50.486Z,3.97
2023-01-17T13:52:58.361Z,3.91
2023-01-17T13:58:06.249Z,3.88
2023-01-17T14:03:13.594Z,3.81
2023-01-17T14:08:22.650Z,3.74
2023-01-17T14:13:35.835Z,3.67
2023-01-17T14:18:44.544Z,3.62
2023-01-17T14:24:07.845Z,3.58
2023-01-17T14:29:59.249Z,3.50
2023-01-17T14:35:09.546Z,3.42
2023-01-17T14:40:22.792Z,3.34
2023-01-17T14:45:33.535Z,3.26
2023-01-17T14:50:41.707Z,3.20
2023-01-17T14:56:01.052Z,3.09
2023-01-17T15:01:14.169Z,2.96
2023-01-17T15:06:24.139Z,2.85
2023-01-17T15:11:35.834Z,2.63
2023-01-17T15:16:43.956Z,2.58
2023-01-17T15:21:53.325Z,2.57
2023-01-17T15:27:00.859Z,2.46
2023-01-17T15:32:17.282Z,2.37
2023-01-17T15:37:30.927Z,2.31
2023-01-17T15:42:40.972Z,2.27
2023-01-17T15:47:49.668Z,2.24
2023-01-17T15:52:58.862Z,2.17
2023-01-17T15:58:07.334Z,2.11
2023-01-17T16:03:26.180Z,2.08
2023-01-17T16:08:40.314Z,2.00
2023-01-17T16:13:47.824Z,2.00
2023-01-17T16:19:02.549Z,2.01
2023-01-17T16:24:13.699Z,2.06
2023-01-17T16:29:20.687Z,2.10
2023-01-17T16:34:34.000Z,2.11
2023-01-17T16:39:41.816Z,2.15
2023-01-17T16:44:48.550Z,2.16
2023-01-17T16:49:56.577Z,2.17
2023-01-17T16:55:03.342Z,2.16
2023-01-17T17:00:13.991Z,2.14
2023-01-17T17:05:22.452Z,2.13
2023-01-17T17:10:30.860Z,2.15
2023-01-17T17:15:42.795Z,2.11
2023-01-17T17:20:51.640Z,2.06
2023-01-17T17:25:58.672Z,1.98
2023-01-17T17:31:10.743Z,1.90
2023-01-17T17:36:20.257Z,1.87
2023-01-17T17:41:30.015Z,1.87
2023-01-17T17:46:39.139Z,1.77
2023-01-17T17:51:48.777Z,1.72
2023-01-17T17:56:59.994Z,1.70
2023-01-17T18:02:11.131Z,1.62
2023-01-17T18:07:21.209Z,1.56
2023-01-17T18:12:31.455Z,1.52
2023-01-17T18:17:41.873Z,1.56
2023-01-17T18:22:54.250Z,1.47
2023-01-17T18:28:04.581Z,1.43
2023-01-17T18:33:13.683Z,1.42
2023-01-17T18:38:29.475Z,1.41
2023-01-17T18:43:40.267Z,1.32
2023-01-17T18:48:48.861Z,1.16
2023-01-17T18:54:00.128Z,1.15
2023-01-17T18:59:10.431Z,1.11
2023-01-17T19:04:19.953Z,1.14
2023-01-17T19:09:32.858Z,1.08
2023-01-17T19:14:42.643Z,0.93
2023-01-17T19:19:56.987Z,0.94
2023-01-17T19:25:23.750Z,0.94
2023-01-17T19:30:33.526Z,1.00
2023-01-17T19:35:42.457Z,1.05
2023-01-17T19:40:53.465Z,1.09
2023-01-17T19:46:05.047Z,1.03
2023-01-17T19:51:16.582Z,0.99
2023-01-17T19:56:29.957Z,1.05
2023-01-17T20:01:40.130Z,0.95
2023-01-17T20:06:49.755Z,0.89
2023-01-17T20:11:59.539Z,0.81
2023-01-17T20:17:08.816Z,0.83
2023-01-17T20:22:17.346Z,0.75
2023-01-17T20:27:32.718Z,0.74
2023-01-17T20:32:41.689Z,0.67
2023-01-17T20:37:49.963Z,0.74
2023-01-17T20:43:10.322Z,0.69
2023-01-17T20:48:18.696Z,0.55
2023-01-17T20:53:25.778Z,0.38
2023-01-17T20:58:34.942Z,0.41
2023-01-17T21:03:42.905Z,0.31
2023-01-17T21:08:51.881Z,0.26
2023-01-17T21:14:01.149Z,0.24
2023-01-17T21:19:12.253Z,0.40
2023-01-17T21:24:20.448Z,-0.02
2023-01-17T21:29:29.518Z,0.01
2023-01-17T21:34:36.434Z,-0.13
2023-01-17T21:39:43.856Z,-0.10
2023-01-17T21:44:53.483Z,-0.13
2023-01-17T21:49:59.819Z,-0.06
2023-01-17T21:55:24.457Z,0.04
2023-01-17T22:00:32.584Z,0.06
2023-01-17T22:05:39.324Z,-0.10
2023-01-17T22:10:48.792Z,-0.27
2023-01-17T22:16:02.990Z,-0.46
2023-01-17T22:21:13.504Z,-0.30
2023-01-17T22:26:21.139Z,-0.43
2023-01-17T22:31:30.105Z,-0.37
2023-01-17T22:36:36.702Z,-0.60
2023-01-17T22:41:43.206Z,-0.62
2023-01-17T22:46:51.271Z,-0.49
2023-01-17T22:51:57.946Z,-0.44
2023-01-17T22:57:04.495Z,-0.37
2023-01-17T23:02:12.330Z,-0.64
2023-01-17T23:07:18.782Z,-0.58
2023-01-17T23:12:24.993Z,-0.52
2023-01-17T23:17:50.396Z,-0.63
2023-01-17T23:22:57.038Z,-0.54
2023-01-17T23:28:21.018Z,-0.54
2023-01-17T23:33:28.803Z,-0.51
2023-01-17T23:38:40.971Z,-0.45
2023-01-17T23:43:51.768Z,-0.41
2023-01-17T23:48:59.732Z,-0.42
2023-01-17T23:54:06.755Z,-0.41
2023-01-17T23:59:13.468Z,-0.44
